Mostly Cloudy Current Weather (METAR) For Cancun Airport

All times on the weather descriptions are local

Observed at 05:43 - (1 hr 10 mins ago)

Mostly Cloudy

24°C

Mostly Cloudy
Clouds: Few Clouds at 1,500ft, Broken Clouds at 8,000ft
Wind: Calm
Visibility: 7 statute miles
QNH:
Dew Point: 23°C
Runway in Use: Unable to determine, wind is clam

Sunrise Today: 06:17
Sunset Today: 19:31

Forecast Weather (TAF) For Cancun Airport

Issued at 19:00 - (7 days 12 hrs ago)


Runway in Use: Unable to determine, wind is clam

Forecast valid until 19:00 on Wednesday

METAR/TAF RAW METAR / TAF

MMUN 231043Z 00000KT 7SM FEW015 BKN080 24/23 A3002 RMK 8/570

Weather Widget

Put weather from any of our airports on your website with our weather widget.

Find Another Search

Airport Search


Please Wait Please Wait - Loading
Close
Close

Login

Username:

Password:

Remember Me:

Remember me on this computer

Forgotten your password? Get a reset password sent to your registered e-mail address

Close

User Private Message

Subject:

Message: